createdAt,value
2022-12-04T00:03:19.685Z,0.30
2022-12-04T00:07:20.818Z,0.50
2022-12-04T00:11:24.597Z,0.80
2022-12-04T00:15:26.589Z,0.80
2022-12-04T00:19:28.145Z,0.20
2022-12-04T00:23:29.345Z,0.30
2022-12-04T00:27:30.596Z,0.00
2022-12-04T00:31:32.442Z,0.30
2022-12-04T00:35:33.494Z,0.30
2022-12-04T00:39:34.494Z,0.20
2022-12-04T00:43:35.568Z,0.20
2022-12-04T00:47:36.808Z,0.30
2022-12-04T00:51:38.568Z,0.50
2022-12-04T00:55:41.391Z,0.60
2022-12-04T00:59:42.715Z,0.40
2022-12-04T01:03:44.672Z,0.60
2022-12-04T01:07:45.897Z,0.80
2022-12-04T01:11:47.321Z,0.60
2022-12-04T01:15:49.018Z,0.40
2022-12-04T01:19:50.191Z,0.40
2022-12-04T01:23:51.640Z,0.60
2022-12-04T01:27:52.647Z,0.60
2022-12-04T01:31:53.737Z,0.20
2022-12-04T01:35:56.413Z,0.00
2022-12-04T01:39:58.655Z,0.10
2022-12-04T01:44:18.134Z,0.80
2022-12-04T01:48:32.175Z,0.50
2022-12-04T01:52:33.405Z,0.70
2022-12-04T01:56:38.304Z,0.70
2022-12-04T02:00:39.544Z,0.70
2022-12-04T02:04:42.209Z,0.40
2022-12-04T02:08:43.180Z,0.60
2022-12-04T02:13:06.113Z,1.10
2022-12-04T02:17:40.774Z,0.80
2022-12-04T02:21:45.354Z,1.00
2022-12-04T02:26:10.982Z,1.00
2022-12-04T02:30:14.633Z,0.90
2022-12-04T02:34:31.410Z,1.00
2022-12-04T02:38:42.378Z,0.30
2022-12-04T02:42:47.183Z,0.50
2022-12-04T02:46:51.643Z,0.50
2022-12-04T02:50:55.283Z,0.20
2022-12-04T02:55:04.008Z,0.30
2022-12-04T02:59:12.691Z,0.50
2022-12-04T03:03:17.604Z,0.30
2022-12-04T03:07:22.482Z,0.60
2022-12-04T03:11:26.948Z,0.20
2022-12-04T03:15:34.896Z,0.60
2022-12-04T03:19:45.425Z,-0.10
2022-12-04T03:23:50.221Z,0.20
2022-12-04T03:27:55.041Z,0.30
2022-12-04T03:32:02.665Z,0.50
2022-12-04T03:36:16.268Z,0.20
2022-12-04T03:40:24.265Z,0.40
2022-12-04T03:44:32.072Z,0.70
2022-12-04T03:48:45.948Z,0.30
2022-12-04T03:52:50.913Z,0.80
2022-12-04T03:56:55.710Z,0.80
2022-12-04T04:00:59.465Z,0.20
2022-12-04T04:05:02.644Z,-0.20
2022-12-04T04:09:07.649Z,0.30
2022-12-04T04:13:31.191Z,0.10
2022-12-04T04:17:54.641Z,0.50
2022-12-04T04:22:16.241Z,0.70
2022-12-04T04:26:18.016Z,0.20
2022-12-04T04:30:19.716Z,0.10
2022-12-04T04:34:36.090Z,-0.10
2022-12-04T04:38:46.729Z,-0.20
2022-12-04T04:43:12.715Z,0.10
2022-12-04T04:47:17.567Z,-0.10
2022-12-04T04:51:19.981Z,-0.20
2022-12-04T04:55:22.764Z,-0.40
2022-12-04T04:59:23.722Z,-0.20
2022-12-04T05:03:26.222Z,0.00
2022-12-04T05:07:27.271Z,-0.40
2022-12-04T05:11:28.531Z,-0.10
2022-12-04T05:15:29.674Z,0.00
2022-12-04T05:19:53.791Z,0.00
2022-12-04T05:23:55.020Z,0.00
2022-12-04T05:27:55.962Z,0.10
2022-12-04T05:31:56.813Z,-0.40
2022-12-04T05:35:59.574Z,-0.40
2022-12-04T05:40:00.552Z,-0.10
2022-12-04T05:44:01.531Z,0.10
2022-12-04T05:48:02.718Z,-0.30
2022-12-04T05:52:04.909Z,-0.10
2022-12-04T05:56:06.886Z,-0.60
2022-12-04T06:00:08.474Z,-0.70
2022-12-04T06:04:10.893Z,-0.70
2022-12-04T06:08:12.172Z,-0.50
2022-12-04T06:12:13.171Z,-0.40
2022-12-04T06:16:15.944Z,-0.40
2022-12-04T06:20:17.391Z,-0.60
2022-12-04T06:24:21.975Z,-0.50
2022-12-04T06:28:22.897Z,-0.60
2022-12-04T06:32:24.087Z,-0.50
2022-12-04T06:36:25.847Z,-0.50
2022-12-04T06:40:26.975Z,-0.50
2022-12-04T06:44:28.093Z,-0.40
2022-12-04T06:48:29.581Z,-0.70
2022-12-04T06:52:33.447Z,-0.30
2022-12-04T06:56:34.641Z,-0.30
2022-12-04T07:00:35.641Z,-0.10
2022-12-04T07:04:36.752Z,-0.50
2022-12-04T07:08:37.675Z,-0.30
2022-12-04T07:12:38.651Z,-0.40
2022-12-04T07:16:41.978Z,-0.60
2022-12-04T07:20:43.328Z,-0.20
2022-12-04T07:24:44.285Z,-0.20
2022-12-04T07:28:45.333Z,-0.20
2022-12-04T07:32:46.443Z,-0.50
2022-12-04T07:36:47.600Z,-0.60
2022-12-04T07:40:48.654Z,-0.40
2022-12-04T07:44:49.682Z,-0.60
2022-12-04T07:48:51.168Z,-0.30
2022-12-04T07:52:52.162Z,-0.20
2022-12-04T07:56:53.140Z,-0.20
2022-12-04T08:00:54.393Z,0.20
2022-12-04T08:04:55.481Z,-0.10
2022-12-04T08:08:56.976Z,-0.20
2022-12-04T08:12:57.906Z,-0.50
2022-12-04T08:16:58.968Z,-0.10
2022-12-04T08:21:08.235Z,0.30
2022-12-04T08:25:09.316Z,-0.20
2022-12-04T08:29:10.940Z,0.00
2022-12-04T08:33:11.897Z,0.00
2022-12-04T08:37:13.132Z,0.20
2022-12-04T08:41:36.011Z,0.40
2022-12-04T08:45:36.985Z,0.10
2022-12-04T08:49:37.847Z,0.40
2022-12-04T08:53:38.806Z,0.30
2022-12-04T08:57:39.912Z,0.20
2022-12-04T09:01:41.055Z,0.10
2022-12-04T09:05:45.277Z,0.10
2022-12-04T09:09:48.546Z,0.20
2022-12-04T09:13:52.097Z,0.30
2022-12-04T09:17:53.309Z,0.60
2022-12-04T09:21:54.452Z,0.20
2022-12-04T09:25:55.512Z,0.30
2022-12-04T09:29:56.829Z,0.40
2022-12-04T09:33:59.372Z,0.50
2022-12-04T09:38:01.185Z,0.40
2022-12-04T09:42:12.116Z,0.20
2022-12-04T09:46:25.707Z,0.40
2022-12-04T09:50:42.427Z,0.30
2022-12-04T09:54:44.678Z,0.40
2022-12-04T09:59:01.351Z,0.40
2022-12-04T10:03:06.064Z,0.50
2022-12-04T10:07:11.159Z,0.10
2022-12-04T10:11:32.496Z,0.40
2022-12-04T10:16:11.784Z,0.30
2022-12-04T10:20:40.740Z,0.40
2022-12-04T10:24:54.313Z,0.80
2022-12-04T10:29:05.488Z,0.30
2022-12-04T10:33:30.568Z,0.50
2022-12-04T10:37:35.191Z,0.20
2022-12-04T10:41:49.080Z,0.60
2022-12-04T10:45:50.249Z,0.50
2022-12-04T10:49:55.152Z,0.40
2022-12-04T10:53:56.506Z,0.80
2022-12-04T10:57:57.623Z,0.50
2022-12-04T11:02:14.484Z,0.30
2022-12-04T11:06:15.877Z,0.60
2022-12-04T11:10:35.093Z,0.70
2022-12-04T11:14:36.283Z,0.20
2022-12-04T11:18:49.132Z,0.50
2022-12-04T11:22:58.323Z,0.70
2022-12-04T11:27:00.400Z,0.60
2022-12-04T11:31:04.613Z,0.70
2022-12-04T11:35:12.470Z,0.90
2022-12-04T11:39:19.918Z,0.70
2022-12-04T11:43:26.996Z,0.90
2022-12-04T11:47:31.505Z,0.80
2022-12-04T11:51:55.109Z,1.20
2022-12-04T11:56:05.865Z,0.80
2022-12-04T12:00:16.271Z,0.90
2022-12-04T12:04:27.393Z,1.00
2022-12-04T12:08:47.358Z,1.00
2022-12-04T12:13:08.851Z,0.90
2022-12-04T12:17:16.796Z,1.10
2022-12-04T12:21:26.693Z,1.30
2022-12-04T12:25:34.294Z,1.50
2022-12-04T12:30:13.236Z,1.10
2022-12-04T12:34:33.507Z,1.60
2022-12-04T12:38:38.411Z,1.30
2022-12-04T12:42:57.861Z,1.70
2022-12-04T12:47:01.537Z,2.20
2022-12-04T12:51:31.749Z,1.80
2022-12-04T12:55:48.022Z,1.30
2022-12-04T12:59:52.854Z,1.30
2022-12-04T13:04:06.464Z,1.70
2022-12-04T13:08:11.510Z,1.20
2022-12-04T13:12:16.076Z,1.60
2022-12-04T13:16:23.963Z,1.60
2022-12-04T13:20:28.801Z,1.40
2022-12-04T13:24:57.453Z,1.80
2022-12-04T13:29:10.919Z,1.60
2022-12-04T13:33:36.937Z,1.30
2022-12-04T13:37:47.778Z,1.80
2022-12-04T13:42:01.768Z,1.90
2022-12-04T13:46:06.320Z,1.40
2022-12-04T13:50:11.728Z,1.40
2022-12-04T13:54:16.779Z,1.50
2022-12-04T13:58:21.645Z,1.30
2022-12-04T14:02:31.657Z,1.60
2022-12-04T14:06:41.821Z,1.40
2022-12-04T14:10:44.341Z,1.10
2022-12-04T14:14:58.185Z,1.20
2022-12-04T14:19:02.121Z,1.30
2022-12-04T14:23:10.009Z,1.20
2022-12-04T14:27:34.956Z,1.20
2022-12-04T14:31:39.298Z,0.90
2022-12-04T14:35:47.338Z,1.50
2022-12-04T14:39:49.773Z,1.70
2022-12-04T14:43:51.183Z,1.10
2022-12-04T14:47:59.026Z,1.50
2022-12-04T14:52:07.359Z,1.80
2022-12-04T14:56:45.675Z,2.10
2022-12-04T15:00:52.564Z,1.50
2022-12-04T15:04:54.306Z,1.50
2022-12-04T15:09:00.091Z,1.90
2022-12-04T15:13:01.239Z,1.90
2022-12-04T15:17:03.044Z,1.90
2022-12-04T15:21:06.030Z,2.00
2022-12-04T15:25:23.285Z,2.30
2022-12-04T15:29:30.152Z,1.60
2022-12-04T15:33:36.811Z,2.00
2022-12-04T15:37:41.992Z,1.50
2022-12-04T15:41:43.737Z,1.60
2022-12-04T15:45:45.395Z,1.70
2022-12-04T15:49:46.633Z,1.20
2022-12-04T15:53:47.956Z,1.70
2022-12-04T15:57:55.476Z,1.00
2022-12-04T16:02:00.433Z,1.30
2022-12-04T16:06:04.671Z,1.20
2022-12-04T16:10:09.536Z,1.40
2022-12-04T16:14:14.403Z,1.30
2022-12-04T16:18:15.625Z,1.20
2022-12-04T16:22:23.155Z,1.80
2022-12-04T16:26:24.364Z,1.10
2022-12-04T16:30:30.556Z,1.40
2022-12-04T16:34:32.286Z,1.40
2022-12-04T16:38:33.695Z,1.20
2022-12-04T16:42:35.071Z,1.20
2022-12-04T16:46:36.370Z,1.40
2022-12-04T16:50:37.446Z,1.40
2022-12-04T16:54:39.660Z,1.40
2022-12-04T16:58:40.928Z,1.30
2022-12-04T17:02:43.423Z,1.20
2022-12-04T17:06:45.542Z,1.70
2022-12-04T17:10:46.715Z,1.50
2022-12-04T17:14:47.919Z,1.60
2022-12-04T17:18:49.032Z,1.10
2022-12-04T17:22:50.289Z,1.30
2022-12-04T17:26:51.812Z,1.80
2022-12-04T17:30:53.004Z,1.70
2022-12-04T17:34:54.958Z,2.00
2022-12-04T17:38:58.035Z,2.00
2022-12-04T17:42:59.150Z,2.00
2022-12-04T17:47:00.281Z,2.20
2022-12-04T17:51:07.497Z,3.40
2022-12-04T17:55:09.121Z,3.30
2022-12-04T17:59:10.266Z,3.40
2022-12-04T18:03:11.528Z,3.00
2022-12-04T18:07:12.628Z,2.80
2022-12-04T18:11:14.267Z,2.40
2022-12-04T18:15:15.612Z,2.00
2022-12-04T18:19:17.012Z,2.40
2022-12-04T18:23:18.087Z,1.70
2022-12-04T18:27:19.547Z,1.70
2022-12-04T18:31:21.364Z,1.70
2022-12-04T18:35:22.676Z,2.90
2022-12-04T18:39:25.552Z,3.10
2022-12-04T18:43:26.795Z,2.90
2022-12-04T18:47:29.598Z,3.10
2022-12-04T18:51:34.154Z,2.60
2022-12-04T18:55:36.698Z,2.50
2022-12-04T18:59:38.699Z,2.10
2022-12-04T19:03:40.372Z,2.30
2022-12-04T19:07:41.727Z,2.80
2022-12-04T19:11:43.878Z,3.40
2022-12-04T19:15:46.792Z,4.50
2022-12-04T19:19:48.469Z,5.80
2022-12-04T19:23:56.276Z,4.00
2022-12-04T19:27:57.780Z,4.70
2022-12-04T19:31:59.811Z,5.50
2022-12-04T19:36:03.826Z,5.30
2022-12-04T19:40:06.270Z,4.90
2022-12-04T19:44:40.233Z,4.00
2022-12-04T19:48:12.516Z,2.60
2022-12-04T19:52:14.430Z,3.70
2022-12-04T19:56:19.338Z,2.70
2022-12-04T20:00:20.874Z,2.10
2022-12-04T20:04:22.327Z,2.80
2022-12-04T20:08:23.693Z,2.90
2022-12-04T20:12:25.100Z,3.50
2022-12-04T20:16:29.270Z,2.70
2022-12-04T20:20:30.665Z,2.90
2022-12-04T20:24:32.347Z,4.50
2022-12-04T20:28:34.149Z,5.30
2022-12-04T20:32:35.675Z,5.60
2022-12-04T20:36:40.428Z,5.30
2022-12-04T20:40:41.933Z,5.40
2022-12-04T20:44:43.206Z,5.80
2022-12-04T20:48:48.702Z,6.00
2022-12-04T20:52:50.124Z,5.40
2022-12-04T20:56:53.085Z,3.90
2022-12-04T21:00:56.371Z,5.20
2022-12-04T21:04:57.807Z,5.20
2022-12-04T21:09:01.535Z,3.70
2022-12-04T21:13:21.502Z,3.60
2022-12-04T21:17:23.082Z,4.90
2022-12-04T21:21:26.672Z,3.30
2022-12-04T21:25:28.225Z,3.40
2022-12-04T21:29:29.549Z,2.80
2022-12-04T21:33:33.173Z,3.40
2022-12-04T21:37:34.613Z,2.90
2022-12-04T21:41:54.545Z,2.80
2022-12-04T21:45:57.375Z,3.00
2022-12-04T21:49:59.328Z,2.70
2022-12-04T21:54:01.006Z,4.00
2022-12-04T21:58:02.160Z,4.60
2022-12-04T22:02:03.776Z,5.00
2022-12-04T22:06:05.725Z,4.70
2022-12-04T22:10:10.867Z,5.00
2022-12-04T22:14:12.401Z,5.00
2022-12-04T22:18:14.293Z,4.20
2022-12-04T22:22:15.645Z,5.80
2022-12-04T22:26:20.739Z,4.70
2022-12-04T22:30:21.775Z,5.00
2022-12-04T22:34:22.882Z,5.10
2022-12-04T22:38:24.101Z,5.80
2022-12-04T22:42:25.180Z,4.90
2022-12-04T22:46:26.729Z,5.30
2022-12-04T22:50:28.197Z,5.40
2022-12-04T22:54:29.271Z,6.20
2022-12-04T22:58:30.324Z,6.00
2022-12-04T23:02:32.784Z,6.30
2022-12-04T23:06:34.538Z,6.00
2022-12-04T23:10:37.626Z,6.30
2022-12-04T23:14:38.947Z,6.20
2022-12-04T23:18:40.064Z,6.20
2022-12-04T23:22:47.524Z,6.30
2022-12-04T23:26:48.533Z,6.30
2022-12-04T23:30:49.525Z,6.30
2022-12-04T23:34:52.316Z,6.30
2022-12-04T23:38:53.744Z,5.70
2022-12-04T23:42:54.881Z,5.90
2022-12-04T23:46:55.807Z,6.20
2022-12-04T23:50:56.806Z,6.30
2022-12-04T23:54:57.903Z,6.10
2022-12-04T23:58:58.908Z,6.30
